Time;durP1;ratioP1;P1;durP2;ratioP2;P2;SDS_P1;SDS_P2;PMS_P1;PMS_P2;Temp;Humidity;BMP_temperature;BMP_pressure;BME280_temperature;BME280_humidity;BME280_pressure;Samples;Min_cycle;Max_cycle;Signal;HPM_P1;HPM_P2
2023/05/22 00:00:22;;;;;;;9.38;5.82;;;;;;;17.05;67.08;99803.75;5054644;28;20096;-77
2023/05/22 00:02:49;;;;;;;11.27;6.23;;;;;;;17.03;67.28;99800.28;5055884;28;20083;-77
2023/05/22 00:05:17;;;;;;;8.77;5.63;;;;;;;17.02;67.30;99813.66;5055736;28;20043;-77
2023/05/22 00:07:43;;;;;;;10.50;5.70;;;;;;;16.98;67.41;99802.25;5056008;28;20055;-77
2023/05/22 00:10:09;;;;;;;9.13;5.82;;;;;;;16.96;67.57;99803.19;5059875;28;20437;-77
2023/05/22 00:12:34;;;;;;;10.25;5.55;;;;;;;16.94;67.51;99795.31;5055887;28;20053;-77
2023/05/22 00:15:00;;;;;;;8.67;5.47;;;;;;;16.92;67.59;99798.00;5055856;28;20485;-77
2023/05/22 00:17:25;;;;;;;9.87;6.00;;;;;;;16.90;67.77;99788.38;5056166;28;20501;-77
2023/05/22 00:19:54;;;;;;;10.45;5.90;;;;;;;16.87;67.80;99789.34;5054757;28;20029;-77
2023/05/22 00:22:19;;;;;;;7.60;5.37;;;;;;;16.86;67.87;99782.28;5056125;28;20516;-77
2023/05/22 00:24:45;;;;;;;9.93;5.93;;;;;;;16.87;67.83;99767.19;5055848;28;20021;-77
2023/05/22 00:27:10;;;;;;;8.13;5.90;;;;;;;16.87;67.93;99768.06;5056014;28;20040;-77
2023/05/22 00:29:36;;;;;;;9.48;6.05;;;;;;;16.84;68.12;99776.16;5055965;28;20014;-77
2023/05/22 00:32:02;;;;;;;9.20;6.30;;;;;;;16.81;68.19;99770.97;5055892;28;20506;-77
2023/05/22 00:34:27;;;;;;;10.57;6.07;;;;;;;16.79;68.20;99767.50;5055930;28;20017;-77
2023/05/22 00:36:52;;;;;;;11.30;6.72;;;;;;;16.77;68.54;99766.69;5055923;28;20025;-77
2023/05/22 00:39:18;;;;;;;13.13;7.17;;;;;;;16.73;68.70;99759.72;5055768;28;20401;-77
2023/05/22 00:41:43;;;;;;;12.20;7.03;;;;;;;16.69;68.75;99768.75;5054586;28;20092;-77
2023/05/22 00:44:09;;;;;;;11.53;7.00;;;;;;;16.67;68.95;99767.94;5055863;28;20417;-77
2023/05/22 00:46:35;;;;;;;10.27;6.88;;;;;;;16.67;68.48;99759.97;5055887;28;20032;-77
2023/05/22 00:49:00;;;;;;;11.50;7.10;;;;;;;16.69;68.64;99768.75;5055721;28;20037;-77
2023/05/22 00:51:26;;;;;;;11.82;6.97;;;;;;;16.69;68.54;99761.66;5054575;28;20028;-77
2023/05/22 00:53:53;;;;;;;13.23;7.63;;;;;;;16.72;68.44;99763.31;5055384;28;20049;-77
2023/05/22 00:56:20;;;;;;;11.20;7.13;;;;;;;16.74;68.42;99766.78;5054552;28;20018;-77
2023/05/22 00:58:46;;;;;;;12.55;7.15;;;;;;;16.74;68.51;99769.44;5055560;28;20036;-77
2023/05/22 01:01:12;;;;;;;13.27;7.72;;;;;;;16.74;68.49;99769.44;5055671;28;20665;-77
2023/05/22 01:03:48;;;;;;;13.40;7.57;;;;;;;16.75;68.30;99768.50;5055430;28;20020;-77
2023/05/22 01:06:14;;;;;;;12.65;7.60;;;;;;;16.72;68.44;99764.19;5055689;28;20041;-77
2023/05/22 01:08:41;;;;;;;12.85;7.57;;;;;;;16.71;68.24;99761.59;5054162;28;20040;-78
2023/05/22 01:11:15;;;;;;;12.45;7.45;;;;;;;16.71;68.33;99766.91;5058360;28;20431;-77
2023/05/22 01:13:59;;;;;;;11.47;7.70;;;;;;;16.70;68.30;99757.19;5056383;28;20493;-77
2023/05/22 01:16:47;;;;;;;10.70;7.05;;;;;;;16.69;68.48;99768.75;5059083;28;20017;-77
2023/05/22 01:19:30;;;;;;;13.88;8.02;;;;;;;16.65;68.54;99765.38;5058040;28;20029;-77
2023/05/22 01:22:24;;;;;;;11.90;8.25;;;;;;;16.55;68.88;99762.19;5057916;28;20484;-77
2023/05/22 01:25:19;;;;;;;11.73;7.35;;;;;;;16.49;68.80;99757.06;5058819;28;20025;-77
2023/05/22 01:27:57;;;;;;;11.30;7.47;;;;;;;16.44;69.20;99753.72;5057942;28;20123;-77
2023/05/22 01:30:40;;;;;;;16.65;7.93;;;;;;;16.43;68.88;99751.97;5049949;28;20021;-77
2023/05/22 01:33:08;;;;;;;12.50;8.00;;;;;;;16.40;69.23;99742.34;5057655;28;20541;-77
2023/05/22 01:35:35;;;;;;;15.88;8.55;;;;;;;16.36;69.25;99741.59;5057655;28;20021;-77
2023/05/22 01:38:02;;;;;;;13.32;8.18;;;;;;;16.31;69.39;99735.59;5058665;28;20033;-77
2023/05/22 01:40:28;;;;;;;12.77;7.83;;;;;;;16.26;69.81;99734.00;5057326;28;20017;-77
2023/05/22 01:42:54;;;;;;;13.73;8.65;;;;;;;16.20;69.92;99733.31;5057441;28;20044;-77
2023/05/22 01:45:20;;;;;;;13.77;9.20;;;;;;;16.18;69.97;99736.94;5057727;28;20032;-77
2023/05/22 01:47:45;;;;;;;14.63;8.55;;;;;;;16.16;69.82;99733.47;5057491;28;20033;-77
2023/05/22 01:50:11;;;;;;;12.37;8.53;;;;;;;16.12;70.06;99734.50;5058636;28;20025;-77
2023/05/22 01:52:57;;;;;;;13.00;8.63;;;;;;;16.06;70.44;99738.25;5058530;28;20493;-77
2023/05/22 01:55:39;;;;;;;14.48;9.10;;;;;;;16.04;70.50;99745.41;5058127;28;20029;-77
2023/05/22 01:58:35;;;;;;;11.10;7.65;;;;;;;16.03;70.46;99739.19;5058481;28;20025;-77
2023/05/22 02:01:02;;;;;;;11.48;8.35;;;;;;;16.03;70.19;99733.03;5047686;28;20025;-77
2023/05/22 02:03:30;;;;;;;11.80;7.63;;;;;;;16.04;70.18;99734.78;5057991;28;20029;-77
2023/05/22 02:06:00;;;;;;;12.00;7.93;;;;;;;16.06;70.08;99728.50;5056915;28;20040;-77
2023/05/22 02:08:27;;;;;;;13.32;7.93;;;;;;;16.06;69.98;99728.50;5058009;28;20033;-77
2023/05/22 02:10:56;;;;;;;11.95;8.20;;;;;;;16.04;69.90;99727.69;5062349;28;20029;-77
2023/05/22 02:13:22;;;;;;;14.00;8.45;;;;;;;16.03;70.24;99730.38;5056424;28;20576;-77
2023/05/22 02:15:48;;;;;;;14.13;7.60;;;;;;;16.02;70.45;99732.16;5058117;28;20151;-77
2023/05/22 02:18:14;;;;;;;13.27;7.80;;;;;;;16.00;70.06;99726.03;5058081;28;20111;-77
2023/05/22 02:20:40;;;;;;;11.80;7.60;;;;;;;16.02;70.31;99739.28;5058236;28;20060;-77
2023/05/22 02:23:06;;;;;;;13.93;8.20;;;;;;;16.04;69.97;99742.75;5056562;28;20029;-77
2023/05/22 02:25:31;;;;;;;14.40;7.77;;;;;;;16.06;70.07;99744.44;5057979;28;20516;-77
2023/05/22 02:27:56;;;;;;;14.73;7.72;;;;;;;16.10;69.84;99745.16;5057854;28;20021;-77
2023/05/22 02:30:22;;;;;;;11.90;8.07;;;;;;;16.15;69.76;99747.66;5056657;28;20155;-77
2023/05/22 02:32:47;;;;;;;12.03;8.10;;;;;;;16.16;69.59;99747.63;5057804;28;20592;-77
2023/05/22 02:35:13;;;;;;;13.10;7.27;;;;;;;16.17;69.98;99740.50;5057861;28;20028;-77
2023/05/22 02:37:38;;;;;;;11.75;7.80;;;;;;;16.17;69.92;99745.81;5056192;28;20036;-77
2023/05/22 02:40:05;;;;;;;12.03;7.90;;;;;;;16.17;69.73;99745.81;5057559;28;20032;-77
2023/05/22 02:42:31;;;;;;;12.38;7.45;;;;;;;16.17;69.88;99740.50;5057531;28;20107;-77
2023/05/22 02:44:56;;;;;;;12.50;8.13;;;;;;;16.15;69.79;99739.69;5057540;28;20095;-77
2023/05/22 02:47:21;;;;;;;14.07;8.37;;;;;;;16.07;70.17;99740.84;5057367;28;20439;-77
2023/05/22 02:49:47;;;;;;;11.33;7.37;;;;;;;16.01;70.09;99741.03;5057596;28;20256;-77
2023/05/22 02:52:12;;;;;;;12.20;7.53;;;;;;;15.99;70.38;99737.56;5056213;28;20028;-77
2023/05/22 02:54:38;;;;;;;13.73;7.93;;;;;;;15.98;70.28;99737.66;5056212;28;20028;-77
2023/05/22 02:57:03;;;;;;;13.47;8.57;;;;;;;15.96;70.06;99745.66;5056114;28;20029;-77
2023/05/22 02:59:28;;;;;;;11.85;9.02;;;;;;;15.92;70.30;99742.25;5055890;28;20025;-77
2023/05/22 03:01:54;;;;;;;14.70;8.80;;;;;;;15.85;70.46;99735.38;5055882;28;20064;-77
2023/05/22 03:04:20;;;;;;;13.70;8.30;;;;;;;15.78;70.70;99739.16;5047782;28;20028;-77
2023/05/22 03:06:45;;;;;;;14.57;9.07;;;;;;;15.73;70.89;99736.66;5057124;28;20743;-77
2023/05/22 03:09:11;;;;;;;13.83;8.10;;;;;;;15.74;70.80;99729.56;5055857;28;20025;-77
2023/05/22 03:11:36;;;;;;;13.50;8.50;;;;;;;15.75;70.65;99729.50;5053241;28;20036;-77
2023/05/22 03:14:02;;;;;;;13.67;8.33;;;;;;;15.76;70.97;99736.56;5055510;28;20017;-77
2023/05/22 03:16:28;;;;;;;14.48;8.48;;;;;;;15.77;70.76;99732.13;5055447;28;20019;-77
2023/05/22 03:19:10;;;;;;;13.90;8.33;;;;;;;15.77;70.92;99732.97;5056043;28;20531;-77
2023/05/22 03:21:35;;;;;;;15.40;9.13;;;;;;;15.79;70.49;99731.16;5056888;28;20017;-78
2023/05/22 03:24:01;;;;;;;15.33;8.90;;;;;;;15.75;70.87;99732.16;5055382;28;20078;-77
2023/05/22 03:26:27;;;;;;;16.77;9.40;;;;;;;15.72;70.95;99734.94;5056660;28;20048;-77
2023/05/22 03:28:53;;;;;;;15.00;9.13;;;;;;;15.70;71.42;99736.78;5057085;28;20032;-77
2023/05/22 03:31:18;;;;;;;17.08;9.60;;;;;;;15.66;71.24;99732.50;5056578;28;20040;-77
2023/05/22 03:33:44;;;;;;;15.60;9.30;;;;;;;15.66;71.23;99729.84;5056846;28;20109;-77
2023/05/22 03:36:09;;;;;;;12.87;7.67;;;;;;;15.69;71.08;99732.38;5056131;28;20028;-77
2023/05/22 03:38:34;;;;;;;14.83;8.80;;;;;;;15.72;71.06;99724.31;5056516;28;20032;-77
2023/05/22 03:41:00;;;;;;;13.03;8.93;;;;;;;15.73;70.81;99725.19;5056481;28;20339;-77
2023/05/22 03:43:25;;;;;;;16.67;8.70;;;;;;;15.73;70.84;99735.81;5056743;28;20435;-77
2023/05/22 03:45:51;;;;;;;14.87;8.57;;;;;;;15.71;70.89;99735.84;5056465;28;20092;-77
2023/05/22 03:48:16;;;;;;;14.23;8.40;;;;;;;15.70;70.88;99736.78;5056266;28;20029;-77
2023/05/22 03:50:41;;;;;;;12.70;8.50;;;;;;;15.70;70.63;99741.22;5056711;28;20020;-77
2023/05/22 03:53:07;;;;;;;13.00;8.87;;;;;;;15.68;70.88;99738.59;5055024;28;20268;-77
2023/05/22 03:55:32;;;;;;;16.30;8.83;;;;;;;15.62;70.86;99744.97;5055125;28;20021;-77
2023/05/22 03:57:57;;;;;;;14.87;9.10;;;;;;;15.59;71.06;99745.09;5056295;28;20066;-77
2023/05/22 04:00:23;;;;;;;14.43;8.63;;;;;;;15.55;71.22;99743.47;5056206;28;20032;-77
2023/05/22 04:02:49;;;;;;;15.90;9.20;;;;;;;15.54;70.90;99751.47;5050207;28;20113;-77
2023/05/22 04:05:15;;;;;;;15.13;9.23;;;;;;;15.53;71.08;99749.72;5053448;28;20056;-77
2023/05/22 04:07:40;;;;;;;17.45;9.07;;;;;;;15.52;70.83;99751.53;5056157;28;20039;-78
2023/05/22 04:10:06;;;;;;;15.67;8.60;;;;;;;15.55;70.80;99754.06;5060072;28;20024;-78
2023/05/22 04:12:32;;;;;;;15.95;9.02;;;;;;;15.57;71.16;99756.69;5055855;28;20079;-77
2023/05/22 04:14:57;;;;;;;15.73;9.47;;;;;;;15.56;70.88;99749.66;5056130;28;20401;-77
2023/05/22 04:17:23;;;;;;;16.10;8.95;;;;;;;15.56;70.87;99760.25;5056313;28;20483;-77
2023/05/22 04:19:48;;;;;;;16.17;9.27;;;;;;;15.55;70.78;99758.50;5056288;28;20025;-77
2023/05/22 04:22:13;;;;;;;15.03;8.67;;;;;;;15.55;70.81;99762.03;5054906;28;20075;-77
2023/05/22 04:24:39;;;;;;;16.67;9.20;;;;;;;15.55;70.78;99764.69;5056081;28;20159;-77
2023/05/22 04:27:05;;;;;;;16.87;9.60;;;;;;;15.51;71.03;99755.09;5056192;28;20025;-77
2023/05/22 04:29:30;;;;;;;17.10;8.73;;;;;;;15.48;71.06;99752.56;5056394;28;20259;-77
2023/05/22 04:31:56;;;;;;;15.63;9.30;;;;;;;15.46;70.99;99754.41;5056253;28;20112;-77
2023/05/22 04:34:21;;;;;;;14.83;9.70;;;;;;;15.49;71.14;99762.25;5054891;28;20640;-77
2023/05/22 04:36:46;;;;;;;15.53;9.43;;;;;;;15.48;71.10;99758.72;5056035;28;20024;-77
2023/05/22 04:39:13;;;;;;;14.40;8.63;;;;;;;15.48;71.07;99760.50;5055949;28;20507;-77
2023/05/22 04:41:39;;;;;;;19.45;10.27;;;;;;;15.44;71.04;99762.38;5055878;28;20028;-77
2023/05/22 04:44:05;;;;;;;18.80;9.77;;;;;;;15.40;71.26;99771.38;5055617;28;20095;-77
2023/05/22 04:46:33;;;;;;;18.67;10.32;;;;;;;15.35;71.25;99768.84;5054694;28;20047;-77
2023/05/22 04:49:00;;;;;;;17.10;9.73;;;;;;;15.33;71.51;99780.44;5059017;28;20055;-77
2023/05/22 04:51:27;;;;;;;15.75;9.63;;;;;;;15.34;71.30;99779.53;5058663;28;20028;-77
2023/05/22 04:53:54;;;;;;;17.05;9.93;;;;;;;15.33;71.49;99780.44;5059649;28;20029;-77
2023/05/22 04:56:23;;;;;;;16.15;9.02;;;;;;;15.37;71.42;99782.09;5059824;28;20013;-77
2023/05/22 04:58:48;;;;;;;15.63;9.23;;;;;;;15.39;71.29;99780.25;5059621;28;20424;-77
2023/05/22 05:01:15;;;;;;;16.50;10.07;;;;;;;15.40;71.45;99787.28;5059399;28;20028;-77
2023/05/22 05:03:41;;;;;;;15.10;9.10;;;;;;;15.38;71.31;99783.81;5051197;28;20039;-77
2023/05/22 05:06:07;;;;;;;14.85;9.10;;;;;;;15.39;71.49;99788.22;5059420;28;20040;-77
2023/05/22 05:08:32;;;;;;;14.17;9.30;;;;;;;15.39;71.67;99787.31;5059271;28;20493;-77
2023/05/22 05:10:58;;;;;;;18.17;9.90;;;;;;;15.38;71.30;99791.78;5063376;28;20053;-77
2023/05/22 05:13:23;;;;;;;16.13;10.03;;;;;;;15.35;71.82;99789.22;5058946;28;20036;-77
2023/05/22 05:15:49;;;;;;;19.37;9.97;;;;;;;15.33;71.75;99791.06;5057782;28;20021;-77
2023/05/22 05:18:14;;;;;;;14.83;9.87;;;;;;;15.32;71.88;99792.81;5059121;28;20035;-77
2023/05/22 05:20:39;;;;;;;16.03;9.80;;;;;;;15.34;71.69;99792.78;5059386;28;20385;-77
2023/05/22 05:23:05;;;;;;;18.27;9.70;;;;;;;15.34;71.90;99798.94;5058930;28;20029;-77
2023/05/22 05:25:30;;;;;;;15.37;9.73;;;;;;;15.34;71.81;99806.06;5059296;28;20029;-77
2023/05/22 05:27:56;;;;;;;16.17;9.57;;;;;;;15.33;71.91;99806.97;5059126;28;20049;-77
2023/05/22 05:30:21;;;;;;;16.40;10.02;;;;;;;15.32;72.14;99808.75;5059090;28;20025;-77
2023/05/22 05:32:47;;;;;;;17.73;10.10;;;;;;;15.28;72.23;99812.41;5055279;28;20160;-77
2023/05/22 05:35:12;;;;;;;21.10;10.73;;;;;;;15.26;72.21;99810.72;5039156;28;20053;-77
2023/05/22 05:37:38;;;;;;;16.97;10.10;;;;;;;15.24;72.37;99804.59;5038913;28;20037;-77
2023/05/22 05:40:05;;;;;;;18.43;9.93;;;;;;;15.25;72.36;99807.22;5050482;28;20267;-77
2023/05/22 05:42:31;;;;;;;18.98;10.10;;;;;;;15.27;72.23;99813.34;5041309;28;20033;-77
2023/05/22 05:44:56;;;;;;;19.03;10.23;;;;;;;15.27;72.32;99816.00;5038719;28;20025;-76
2023/05/22 05:47:23;;;;;;;17.80;10.30;;;;;;;15.28;72.21;99814.19;5038956;28;20025;-76
2023/05/22 05:49:49;;;;;;;19.55;10.27;;;;;;;15.27;72.55;99828.38;5040473;28;20028;-76
2023/05/22 05:52:14;;;;;;;16.57;9.87;;;;;;;15.28;72.45;99820.38;5038537;28;20033;-76
2023/05/22 05:54:45;;;;;;;16.33;10.03;;;;;;;15.32;72.49;99826.47;5045116;28;20021;-75
2023/05/22 05:57:10;;;;;;;18.20;10.40;;;;;;;15.36;72.54;99828.94;5042096;28;20021;-74
2023/05/22 05:59:36;;;;;;;17.33;10.30;;;;;;;15.38;72.53;99830.69;5047311;28;20143;-74
2023/05/22 06:02:01;;;;;;;15.60;9.93;;;;;;;15.41;72.34;99841.19;5044439;28;20024;-75
2023/05/22 06:04:27;;;;;;;16.93;10.20;;;;;;;15.43;72.50;99831.41;5048275;28;20044;-74
2023/05/22 06:06:52;;;;;;;18.60;10.97;;;;;;;15.50;72.24;99830.31;5049599;28;20036;-74
2023/05/22 06:09:18;;;;;;;20.42;11.18;;;;;;;15.51;72.63;99832.06;5039763;28;20076;-74
2023/05/22 06:11:43;;;;;;;18.17;10.50;;;;;;;15.46;72.53;99829.53;5046366;28;20108;-74
2023/05/22 06:14:09;;;;;;;21.77;10.73;;;;;;;15.47;72.75;99828.63;5046014;28;20025;-74
2023/05/22 06:16:35;;;;;;;19.60;10.68;;;;;;;15.52;72.98;99832.91;5043323;28;20386;-74
2023/05/22 06:19:00;;;;;;;22.05;10.82;;;;;;;15.56;72.71;99823.97;5046583;28;20394;-74
2023/05/22 06:21:26;;;;;;;17.87;10.90;;;;;;;15.59;72.92;99829.16;5039433;28;20021;-74
2023/05/22 06:23:51;;;;;;;21.20;11.40;;;;;;;15.60;72.91;99833.56;5043623;28;20031;-73
2023/05/22 06:26:17;;;;;;;20.45;12.30;;;;;;;15.57;73.40;99838.97;5043518;28;20381;-73
2023/05/22 06:28:43;;;;;;;20.20;12.50;;;;;;;15.54;73.47;99847.00;5037482;28;20400;-73
2023/05/22 06:31:09;;;;;;;23.40;12.15;;;;;;;15.52;73.57;99843.53;5040912;28;20043;-73
2023/05/22 06:33:39;;;;;;;21.17;11.90;;;;;;;15.49;74.00;99855.13;5047836;28;20702;-73
2023/05/22 06:36:05;;;;;;;18.63;11.45;;;;;;;15.50;73.92;99854.19;5047712;28;20159;-73
2023/05/22 06:38:31;;;;;;;20.42;11.90;;;;;;;15.52;73.86;99856.78;5057486;28;20033;-73
2023/05/22 06:40:56;;;;;;;21.50;12.30;;;;;;;15.52;74.08;99859.44;5053166;28;20024;-73
2023/05/22 06:43:22;;;;;;;21.17;13.32;;;;;;;15.50;74.13;99857.72;5038180;28;20022;-73
2023/05/22 06:45:47;;;;;;;22.27;12.20;;;;;;;15.54;74.00;99858.50;5046112;28;20044;-73
2023/05/22 06:48:13;;;;;;;22.13;11.60;;;;;;;15.59;73.96;99861.00;5037347;28;20022;-73
2023/05/22 06:50:38;;;;;;;18.67;12.70;;;;;;;15.64;74.11;99867.03;5036219;28;20060;-73
2023/05/22 06:53:03;;;;;;;20.87;12.97;;;;;;;15.67;74.25;99869.59;5037406;28;20006;-73
2023/05/22 06:55:29;;;;;;;23.13;13.67;;;;;;;15.69;74.42;99867.75;5046936;28;20017;-73
2023/05/22 06:57:54;;;;;;;23.27;13.40;;;;;;;15.73;74.44;99868.53;5037556;28;20265;-73
2023/05/22 07:00:20;;;;;;;22.67;13.87;;;;;;;15.80;74.04;99875.38;5037351;28;20049;-73
2023/05/22 07:02:45;;;;;;;19.33;12.32;;;;;;;15.89;74.25;99875.09;5037449;28;20021;-73
2023/05/22 07:05:11;;;;;;;20.93;12.73;;;;;;;16.00;74.19;99876.56;5048413;28;20045;-73
2023/05/22 07:07:36;;;;;;;17.73;12.20;;;;;;;16.04;74.05;99868.44;5038493;28;20041;-73
2023/05/22 07:10:02;;;;;;;25.83;14.67;;;;;;;16.08;74.01;99869.19;5044679;28;20013;-73
2023/05/22 07:12:28;;;;;;;23.00;13.10;;;;;;;16.14;74.24;99878.75;5038793;28;20017;-73
2023/05/22 07:14:54;;;;;;;22.55;13.82;;;;;;;16.21;74.62;99865.22;5040404;28;20375;-71
2023/05/22 07:17:20;;;;;;;22.03;14.57;;;;;;;16.29;74.41;99864.97;5037194;28;20055;-71
2023/05/22 07:19:46;;;;;;;19.45;13.85;;;;;;;16.40;74.37;99866.38;5037125;28;20017;-71
2023/05/22 07:22:12;;;;;;;19.52;13.60;;;;;;;16.48;74.34;99867.84;5036964;28;20079;-71
2023/05/22 07:24:37;;;;;;;21.33;13.77;;;;;;;16.53;74.36;99870.34;5037094;28;20025;-71
2023/05/22 07:27:03;;;;;;;23.33;14.20;;;;;;;16.55;74.62;99879.13;5037041;28;20025;-71
2023/05/22 07:29:28;;;;;;;20.23;13.23;;;;;;;16.60;74.61;99881.59;5037095;28;20029;-72
2023/05/22 07:31:54;;;;;;;22.57;13.47;;;;;;;16.65;74.65;99885.00;5044436;28;20083;-72
2023/05/22 07:34:19;;;;;;;21.67;13.17;;;;;;;16.74;74.51;99883.78;5055829;28;20393;-71
2023/05/22 07:36:46;;;;;;;22.57;13.27;;;;;;;16.82;74.18;99876.41;5057019;28;20366;-71
2023/05/22 07:39:11;;;;;;;18.60;12.10;;;;;;;16.91;73.93;99881.38;5056837;28;20275;-71
2023/05/22 07:41:37;;;;;;;19.63;12.40;;;;;;;16.98;73.68;99881.13;5046877;28;20504;-72
2023/05/22 07:44:03;;;;;;;19.57;12.20;;;;;;;17.03;73.68;99889.88;5036896;28;20032;-72
2023/05/22 07:46:28;;;;;;;18.30;12.20;;;;;;;17.08;73.99;99887.91;5036676;28;20018;-72
2023/05/22 07:48:53;;;;;;;18.13;11.27;;;;;;;17.14;73.70;99894.81;5036742;28;20064;-72
2023/05/22 07:51:19;;;;;;;15.70;10.70;;;;;;;17.21;73.50;99893.63;5047422;28;20385;-72
2023/05/22 07:53:44;;;;;;;18.37;10.67;;;;;;;17.31;73.51;99896.81;5056432;28;20048;-71
2023/05/22 07:56:10;;;;;;;15.97;10.13;;;;;;;17.39;73.12;99892.06;5047163;28;20276;-72
2023/05/22 07:58:35;;;;;;;18.30;11.13;;;;;;;17.49;73.17;99888.13;5036549;28;20029;-72
2023/05/22 08:01:01;;;;;;;20.70;13.33;;;;;;;17.50;73.36;99897.84;5036399;28;20021;-72
2023/05/22 08:03:26;;;;;;;19.40;12.80;;;;;;;17.41;73.26;99900.84;5038766;28;20073;-72
2023/05/22 08:05:52;;;;;;;17.97;12.10;;;;;;;17.34;73.47;99902.88;5045298;28;20041;-71
2023/05/22 08:08:17;;;;;;;17.33;10.90;;;;;;;17.33;73.52;99897.63;5037455;28;20082;-72
2023/05/22 08:10:43;;;;;;;18.15;11.77;;;;;;;17.35;73.58;99893.97;5044143;28;20029;-71
2023/05/22 08:13:09;;;;;;;20.23;10.33;;;;;;;17.41;73.25;99895.53;5042971;28;20028;-72
2023/05/22 08:15:34;;;;;;;16.23;10.30;;;;;;;17.46;73.16;99898.03;5036540;28;20096;-72
2023/05/22 08:18:00;;;;;;;17.20;11.10;;;;;;;17.50;73.20;99894.31;5034951;28;20528;-72
2023/05/22 08:20:25;;;;;;;18.98;11.93;;;;;;;17.49;73.17;99893.47;5036251;28;20099;-72
2023/05/22 08:22:51;;;;;;;17.00;11.67;;;;;;;17.46;73.36;99898.88;5041065;28;20057;-72
2023/05/22 08:25:16;;;;;;;20.80;12.57;;;;;;;17.44;73.54;99899.88;5052267;28;20029;-72
2023/05/22 08:27:42;;;;;;;16.67;11.38;;;;;;;17.43;73.53;99900.81;5043278;28;20024;-72
2023/05/22 08:30:08;;;;;;;16.37;11.90;;;;;;;17.49;73.35;99901.44;5060244;28;20481;-72
2023/05/22 08:32:33;;;;;;;20.67;13.27;;;;;;;17.61;73.40;99901.88;5058568;28;20063;-72
2023/05/22 08:34:59;;;;;;;19.73;12.50;;;;;;;17.71;73.11;99895.25;5040136;28;20025;-72
2023/05/22 08:37:25;;;;;;;20.87;13.47;;;;;;;17.85;73.64;99899.16;5040163;28;20462;-72
2023/05/22 08:39:50;;;;;;;20.58;14.10;;;;;;;17.92;73.15;99900.66;5044496;28;20091;-72
2023/05/22 08:42:16;;;;;;;20.83;12.77;;;;;;;18.00;73.03;99893.22;5045323;28;20129;-72
2023/05/22 08:44:41;;;;;;;20.40;13.63;;;;;;;18.14;73.02;99895.34;5040259;28;20486;-72
2023/05/22 08:47:09;;;;;;;21.27;13.32;;;;;;;18.32;72.75;99887.50;5046788;28;20020;-72
2023/05/22 08:49:37;;;;;;;20.93;12.23;;;;;;;18.46;72.21;99884.28;5060184;28;20021;-72
2023/05/22 08:52:09;;;;;;;23.42;12.77;;;;;;;18.48;71.90;99885.91;5058321;28;20028;-72
2023/05/22 08:54:37;;;;;;;17.70;11.65;;;;;;;18.49;71.94;99884.97;5058556;28;20025;-72
2023/05/22 08:57:04;;;;;;;20.10;11.82;;;;;;;18.50;71.71;99885.88;5043037;28;20089;-72
2023/05/22 08:59:30;;;;;;;24.95;14.20;;;;;;;18.55;71.51;99888.31;5038571;28;20515;-72
2023/05/22 09:01:56;;;;;;;22.67;13.50;;;;;;;18.60;71.26;99881.84;5039577;28;20123;-72
2023/05/22 09:04:23;;;;;;;18.02;12.20;;;;;;;18.65;71.30;99889.66;5049559;28;20045;-73
2023/05/22 09:06:49;;;;;;;18.85;10.90;;;;;;;18.64;70.73;99878.09;5042172;28;20025;-72
2023/05/22 09:09:14;;;;;;;18.25;11.32;;;;;;;18.69;71.01;99883.25;5040394;28;20036;-73
2023/05/22 09:11:40;;;;;;;16.90;10.90;;;;;;;18.69;70.82;99890.38;5046040;28;20029;-72
2023/05/22 09:14:07;;;;;;;15.43;9.50;;;;;;;18.72;70.90;99888.44;5055609;28;20116;-72
2023/05/22 09:16:32;;;;;;;16.35;10.57;;;;;;;18.78;70.82;99888.16;5042236;28;20045;-73
2023/05/22 09:18:58;;;;;;;17.90;9.87;;;;;;;18.84;70.57;99889.69;5039389;28;20441;-73
2023/05/22 09:21:28;;;;;;;15.05;10.15;;;;;;;18.90;70.56;99886.75;5039257;28;20029;-73
2023/05/22 09:23:53;;;;;;;17.95;10.48;;;;;;;18.99;70.42;99884.66;5040118;28;20060;-73
2023/05/22 09:26:19;;;;;;;15.13;9.63;;;;;;;19.04;70.29;99879.97;5058300;28;20477;-73
2023/05/22 09:28:46;;;;;;;15.93;10.30;;;;;;;19.06;70.32;99880.75;5059139;28;20050;-72
2023/05/22 09:31:12;;;;;;;15.37;10.20;;;;;;;19.13;70.15;99884.88;5059007;28;20549;-72
2023/05/22 09:33:37;;;;;;;15.98;10.18;;;;;;;19.23;70.25;99885.31;5047960;28;20029;-73
2023/05/22 09:36:03;;;;;;;20.10;12.47;;;;;;;19.29;70.08;99878.84;5037681;28;20470;-73
2023/05/22 09:38:29;;;;;;;17.25;11.68;;;;;;;19.29;69.80;99878.84;5038806;28;20080;-73
2023/05/22 09:40:55;;;;;;;14.03;9.67;;;;;;;19.35;69.72;99879.44;5048581;28;20081;-73
2023/05/22 09:43:24;;;;;;;16.08;9.93;;;;;;;19.42;69.67;99882.69;5045732;28;20551;-73
2023/05/22 09:45:55;;;;;;;15.27;9.73;;;;;;;19.48;68.90;99882.38;5058807;28;20100;-73
2023/05/22 09:48:21;;;;;;;16.33;9.63;;;;;;;19.60;68.53;99885.38;5058735;28;20074;-73
2023/05/22 09:50:49;;;;;;;15.57;9.73;;;;;;;19.75;68.40;99882.00;5058776;28;20028;-73
2023/05/22 09:53:19;;;;;;;13.90;9.23;;;;;;;19.90;68.21;99888.38;5058761;28;20465;-73
2023/05/22 09:55:49;;;;;;;14.63;9.32;;;;;;;19.99;67.88;99884.44;5052985;28;20029;-73
2023/05/22 09:58:18;;;;;;;13.20;8.37;;;;;;;20.07;66.92;99881.38;5037504;28;20029;-73
2023/05/22 10:00:44;;;;;;;14.02;8.15;;;;;;;20.05;67.07;99883.28;5045344;28;20040;-73
2023/05/22 10:03:11;;;;;;;14.15;8.70;;;;;;;20.01;67.25;99876.31;5048355;28;20025;-73
2023/05/22 10:05:42;;;;;;;13.88;8.60;;;;;;;20.01;66.95;99882.53;5039328;28;20081;-73
2023/05/22 10:08:13;;;;;;;14.50;8.48;;;;;;;20.02;66.94;99878.09;5039358;28;20037;-73
2023/05/22 10:10:41;;;;;;;13.73;8.17;;;;;;;20.02;66.68;99878.94;5046455;28;20040;-73
2023/05/22 10:13:07;;;;;;;15.85;8.95;;;;;;;19.99;66.49;99879.09;5044785;28;20454;-73
2023/05/22 10:15:35;;;;;;;12.93;8.98;;;;;;;19.97;66.81;99880.97;5038631;28;20057;-73
2023/05/22 10:18:01;;;;;;;11.38;7.50;;;;;;;19.96;66.82;99873.91;5038271;28;20056;-73
2023/05/22 10:20:28;;;;;;;12.07;7.30;;;;;;;19.97;66.27;99878.31;5043292;28;20040;-73
2023/05/22 10:22:54;;;;;;;14.38;7.80;;;;;;;19.96;66.59;99873.91;5057835;28;20106;-73
2023/05/22 10:25:23;;;;;;;11.05;6.70;;;;;;;19.98;66.52;99872.00;5058236;28;20039;-73
2023/05/22 10:27:51;;;;;;;10.05;6.57;;;;;;;20.03;66.32;99875.31;5058134;28;20039;-73
2023/05/22 10:30:16;;;;;;;14.03;7.33;;;;;;;20.07;66.54;99868.88;5058076;28;20056;-73
2023/05/22 10:33:05;;;;;;;11.68;6.18;;;;;;;20.11;66.08;99872.28;5055868;28;20493;-73
2023/05/22 10:35:51;;;;;;;11.90;6.10;;;;;;;20.10;65.71;99862.53;5036380;28;20033;-73
2023/05/22 10:38:43;;;;;;;11.50;6.32;;;;;;;20.16;65.31;99869.38;5046216;28;20037;-73
2023/05/22 10:41:09;;;;;;;9.45;5.82;;;;;;;20.18;64.50;99860.31;5047791;28;20040;-73
2023/05/22 10:43:42;;;;;;;9.65;5.75;;;;;;;20.17;65.25;99855.06;5038135;28;20060;-73
2023/05/22 10:46:10;;;;;;;8.95;5.30;;;;;;;20.22;64.49;99856.53;5036625;28;20388;-73
2023/05/22 10:48:38;;;;;;;11.20;6.43;;;;;;;20.28;64.81;99863.38;5051188;28;20484;-73
2023/05/22 10:51:05;;;;;;;10.32;7.10;;;;;;;20.33;64.62;99858.66;5037781;28;20044;-73
2023/05/22 10:53:31;;;;;;;13.10;6.72;;;;;;;20.29;64.97;99858.91;5037263;28;20029;-74
2023/05/22 10:56:01;;;;;;;13.23;6.30;;;;;;;20.21;64.50;99861.97;5047374;28;20052;-74
2023/05/22 10:58:37;;;;;;;10.93;5.78;;;;;;;20.08;63.62;99865.25;5037449;28;20038;-73
2023/05/22 11:01:12;;;;;;;9.23;5.50;;;;;;;19.99;64.48;99863.06;5036348;28;20088;-73
2023/05/22 11:03:57;;;;;;;10.13;6.15;;;;;;;19.91;64.31;99865.25;5041147;28;20488;-73
2023/05/22 11:06:40;;;;;;;9.82;6.10;;;;;;;19.86;64.42;99862.75;5041899;28;20056;-74
2023/05/22 11:09:29;;;;;;;9.20;5.70;;;;;;;19.82;64.57;99858.53;5037126;28;20410;-73
2023/05/22 11:12:23;;;;;;;11.43;6.47;;;;;;;19.84;65.37;99859.31;5050441;28;20074;-73
2023/05/22 11:15:04;;;;;;;12.07;6.17;;;;;;;19.91;64.98;99855.41;5050377;28;20022;-73
2023/05/22 11:18:02;;;;;;;9.70;5.80;;;;;;;19.91;64.69;99858.09;5048568;28;20023;-73
2023/05/22 11:20:29;;;;;;;13.88;6.40;;;;;;;20.04;64.48;99850.31;5055828;28;20032;-74
2023/05/22 11:23:17;;;;;;;10.23;5.88;;;;;;;20.15;63.94;99847.09;5055526;28;20043;-74